Time;durP1;ratioP1;P1;durP2;ratioP2;P2;SDS_P1;SDS_P2;PMS_P1;PMS_P2;Temp;Humidity;BMP_temperature;BMP_pressure;BME280_temperature;BME280_humidity;BME280_pressure;Samples;Min_cycle;Max_cycle;Signal;HPM_P1;HPM_P2
2021/12/23 00:01:54;;;;;;;106.20;40.72;;;;;;;;;;5036862;28;20104;-63
2021/12/23 00:04:20;;;;;;;90.13;35.10;;;;;;;;;;5036848;28;20025;-62
2021/12/23 00:06:46;;;;;;;98.78;38.55;;;;;;;;;;5036875;28;20101;-63
2021/12/23 00:09:12;;;;;;;105.25;38.35;;;;;;;;;;5036718;28;20104;-63
2021/12/23 00:11:39;;;;;;;94.55;36.90;;;;;;;;;;5036760;28;20099;-63
2021/12/23 00:14:08;;;;;;;83.50;33.67;;;;;;;;;;5037044;28;20017;-62
2021/12/23 00:19:20;;;;;;;85.53;35.75;;;;;;;;;;5036874;28;20053;-60
2021/12/23 00:24:31;;;;;;;76.18;32.33;;;;;;;;;;5036248;28;20515;-62
2021/12/23 00:26:58;;;;;;;84.15;35.42;;;;;;;;;;5036453;28;20022;-61
2021/12/23 00:29:24;;;;;;;76.97;31.00;;;;;;;;;;5036627;28;20072;-61
2021/12/23 00:31:51;;;;;;;74.10;28.70;;;;;;;;;;5036305;28;20100;-61
2021/12/23 00:34:17;;;;;;;86.40;33.72;;;;;;;;;;5036513;28;20380;-61
2021/12/23 00:36:44;;;;;;;96.15;36.17;;;;;;;;;;5035924;28;20025;-62
2021/12/23 00:39:12;;;;;;;80.65;34.25;;;;;;;;;;5036417;28;20061;-61
2021/12/23 00:41:40;;;;;;;97.75;36.72;;;;;;;;;;5036500;28;20028;-62
2021/12/23 00:44:06;;;;;;;92.72;35.20;;;;;;;;;;5036095;28;20029;-61
2021/12/23 00:46:32;;;;;;;85.25;33.50;;;;;;;;;;5036316;28;20026;-63
2021/12/23 00:48:58;;;;;;;88.65;35.80;;;;;;;;;;5036396;28;20037;-62
2021/12/23 00:51:25;;;;;;;88.55;35.33;;;;;;;;;;5035691;28;20032;-62
2021/12/23 00:53:53;;;;;;;70.57;30.42;;;;;;;;;;5035984;28;20517;-63
2021/12/23 00:56:20;;;;;;;70.43;26.42;;;;;;;;;;5036159;28;20049;-62
2021/12/23 00:58:46;;;;;;;67.53;24.92;;;;;;;;;;5035510;28;20392;-62
2021/12/23 01:01:12;;;;;;;60.78;23.90;;;;;;;;;;5036154;28;20079;-62
2021/12/23 01:03:38;;;;;;;64.18;25.98;;;;;;;;;;5036150;28;20033;-63
2021/12/23 01:06:05;;;;;;;60.42;23.83;;;;;;;;;;5035835;28;20056;-62
2021/12/23 01:08:31;;;;;;;100.65;33.47;;;;;;;;;;5034964;28;20029;-62
2021/12/23 01:10:59;;;;;;;104.00;35.42;;;;;;;;;;5035647;28;20357;-62
2021/12/23 01:13:28;;;;;;;64.82;24.20;;;;;;;;;;5035672;28;20028;-62
2021/12/23 01:16:03;;;;;;;86.72;30.35;;;;;;;;;;5035918;28;20480;-63
2021/12/23 01:18:31;;;;;;;103.50;34.85;;;;;;;;;;5035477;28;20038;-62
2021/12/23 01:21:15;;;;;;;64.60;24.38;;;;;;;;;;5035973;28;20057;-62
2021/12/23 01:23:43;;;;;;;59.78;20.40;;;;;;;;;;5035295;28;20080;-62
2021/12/23 01:26:10;;;;;;;56.78;19.50;;;;;;;;;;5035442;28;20025;-63
2021/12/23 01:28:36;;;;;;;48.25;19.42;;;;;;;;;;5035650;28;20033;-62
2021/12/23 01:31:03;;;;;;;60.08;21.55;;;;;;;;;;5035821;28;20053;-63
2021/12/23 01:33:29;;;;;;;62.25;22.80;;;;;;;;;;5035196;28;20076;-63
2021/12/23 01:35:55;;;;;;;68.03;24.45;;;;;;;;;;5035973;28;20367;-62
2021/12/23 01:38:21;;;;;;;57.83;22.05;;;;;;;;;;5035252;28;20418;-62
2021/12/23 01:40:47;;;;;;;68.68;24.33;;;;;;;;;;5034769;28;20025;-62
2021/12/23 01:43:17;;;;;;;52.00;19.98;;;;;;;;;;5035578;28;20049;-62
2021/12/23 01:45:44;;;;;;;53.80;21.15;;;;;;;;;;5034977;28;20025;-63
2021/12/23 01:48:10;;;;;;;51.28;19.98;;;;;;;;;;5035371;28;20047;-62
2021/12/23 01:50:39;;;;;;;54.45;21.58;;;;;;;;;;5034843;28;20017;-62
2021/12/23 01:53:05;;;;;;;46.25;20.75;;;;;;;;;;5035207;28;20025;-64
2021/12/23 01:55:31;;;;;;;43.20;19.00;;;;;;;;;;5034578;28;20021;-63
2021/12/23 01:57:58;;;;;;;46.65;19.73;;;;;;;;;;5034738;28;20029;-62
2021/12/23 02:00:28;;;;;;;34.45;15.00;;;;;;;;;;5034188;28;20120;-62
2021/12/23 02:02:55;;;;;;;35.20;14.18;;;;;;;;;;5034700;28;20029;-63
2021/12/23 02:05:21;;;;;;;32.42;13.68;;;;;;;;;;5034545;28;20049;-62
2021/12/23 02:07:48;;;;;;;46.45;18.40;;;;;;;;;;5034411;28;20072;-63
2021/12/23 02:10:14;;;;;;;45.53;18.13;;;;;;;;;;5034778;28;20535;-63
2021/12/23 02:12:43;;;;;;;52.28;18.17;;;;;;;;;;5034436;28;20028;-63
2021/12/23 02:15:09;;;;;;;44.13;17.92;;;;;;;;;;5034339;28;20029;-66
2021/12/23 02:17:36;;;;;;;45.47;18.63;;;;;;;;;;5034595;28;20577;-62
2021/12/23 02:20:03;;;;;;;44.72;15.55;;;;;;;;;;5034524;28;20030;-63
2021/12/23 02:22:30;;;;;;;41.42;15.85;;;;;;;;;;5034304;28;20048;-63
2021/12/23 02:24:56;;;;;;;41.28;15.50;;;;;;;;;;5034398;28;20416;-64
2021/12/23 02:27:22;;;;;;;34.00;15.40;;;;;;;;;;5034362;28;20036;-63
2021/12/23 02:29:48;;;;;;;31.90;13.65;;;;;;;;;;5034055;28;20021;-62
2021/12/23 02:32:14;;;;;;;36.72;13.85;;;;;;;;;;5033947;28;20491;-61
2021/12/23 02:34:40;;;;;;;38.08;14.88;;;;;;;;;;5033911;28;20030;-63
2021/12/23 02:37:07;;;;;;;34.33;14.52;;;;;;;;;;5033493;28;20035;-64
2021/12/23 02:39:33;;;;;;;33.88;15.38;;;;;;;;;;5033751;28;20033;-63
2021/12/23 02:42:00;;;;;;;37.83;17.77;;;;;;;;;;5034185;28;20025;-63
2021/12/23 02:44:26;;;;;;;39.00;16.13;;;;;;;;;;5033756;28;20486;-63
2021/12/23 02:46:52;;;;;;;35.30;15.73;;;;;;;;;;5034062;28;20032;-62
2021/12/23 02:49:19;;;;;;;40.10;17.15;;;;;;;;;;5033550;28;20108;-62
2021/12/23 02:51:45;;;;;;;44.70;18.85;;;;;;;;;;5033473;28;20021;-64
2021/12/23 02:54:11;;;;;;;55.53;22.92;;;;;;;;;;5034313;28;20033;-64
2021/12/23 02:56:37;;;;;;;63.42;26.30;;;;;;;;;;5034220;28;20029;-63
2021/12/23 02:59:04;;;;;;;41.25;16.23;;;;;;;;;;5034232;28;20486;-62
2021/12/23 03:01:30;;;;;;;44.13;17.40;;;;;;;;;;5032803;28;20104;-63
2021/12/23 03:03:57;;;;;;;44.85;18.65;;;;;;;;;;5033958;28;20109;-64
2021/12/23 03:06:25;;;;;;;56.30;21.60;;;;;;;;;;5033871;28;20528;-63
2021/12/23 03:09:03;;;;;;;63.58;22.52;;;;;;;;;;5033658;28;20036;-63
2021/12/23 03:11:29;;;;;;;54.50;21.98;;;;;;;;;;5033248;28;20030;-64
2021/12/23 03:13:55;;;;;;;48.88;21.23;;;;;;;;;;5034357;28;20026;-64
2021/12/23 03:16:24;;;;;;;57.78;21.88;;;;;;;;;;5033751;28;20026;-64
2021/12/23 03:18:50;;;;;;;46.92;19.92;;;;;;;;;;5033177;28;20036;-63
2021/12/23 03:21:16;;;;;;;62.75;20.67;;;;;;;;;;5033678;28;20526;-63
2021/12/23 03:23:42;;;;;;;58.00;22.83;;;;;;;;;;5033489;28;20033;-64
2021/12/23 03:26:09;;;;;;;55.17;23.77;;;;;;;;;;5033419;28;20033;-63
2021/12/23 03:28:35;;;;;;;56.55;22.38;;;;;;;;;;5033586;28;20037;-63
2021/12/23 03:31:01;;;;;;;52.22;18.00;;;;;;;;;;5033459;28;20026;-63
2021/12/23 03:33:28;;;;;;;55.08;19.60;;;;;;;;;;5032741;28;20465;-62
2021/12/23 03:35:54;;;;;;;44.58;18.33;;;;;;;;;;5033286;28;20025;-63
2021/12/23 03:38:20;;;;;;;48.72;20.23;;;;;;;;;;5032955;28;20025;-63
2021/12/23 03:40:47;;;;;;;47.17;18.50;;;;;;;;;;5032885;28;20025;-64
2021/12/23 03:43:16;;;;;;;53.72;20.92;;;;;;;;;;5033497;28;20028;-63
2021/12/23 03:45:43;;;;;;;48.03;18.38;;;;;;;;;;5033064;28;20022;-63
2021/12/23 03:48:09;;;;;;;49.10;19.45;;;;;;;;;;5033155;28;20025;-63
2021/12/23 03:50:35;;;;;;;52.28;20.60;;;;;;;;;;5033380;28;20029;-64
2021/12/23 03:53:01;;;;;;;80.05;27.88;;;;;;;;;;5033293;28;20032;-63
2021/12/23 03:55:28;;;;;;;62.80;23.88;;;;;;;;;;5033040;28;20030;-63
2021/12/23 03:57:54;;;;;;;72.97;28.70;;;;;;;;;;5033076;28;20504;-63
2021/12/23 04:00:22;;;;;;;79.97;30.52;;;;;;;;;;5032914;28;20029;-62
2021/12/23 04:02:48;;;;;;;79.05;27.75;;;;;;;;;;5033142;28;20067;-62
2021/12/23 04:05:15;;;;;;;107.35;35.28;;;;;;;;;;5033059;28;20468;-63
2021/12/23 04:07:42;;;;;;;74.28;29.00;;;;;;;;;;5032679;28;20064;-64
2021/12/23 04:10:10;;;;;;;51.88;20.00;;;;;;;;;;5033164;28;20387;-64
2021/12/23 04:12:36;;;;;;;70.57;24.73;;;;;;;;;;5031925;28;20025;-64
2021/12/23 04:15:03;;;;;;;45.13;19.45;;;;;;;;;;5032847;28;20464;-64
2021/12/23 04:17:29;;;;;;;106.13;34.92;;;;;;;;;;5033004;28;20032;-63
2021/12/23 04:20:03;;;;;;;66.72;23.40;;;;;;;;;;5033301;28;20030;-63
2021/12/23 04:22:29;;;;;;;69.18;25.48;;;;;;;;;;5032861;28;20407;-64
2021/12/23 04:24:55;;;;;;;71.10;24.83;;;;;;;;;;5032697;28;20066;-63
2021/12/23 04:27:21;;;;;;;57.97;21.90;;;;;;;;;;5032982;28;20029;-62
2021/12/23 04:29:47;;;;;;;57.90;20.75;;;;;;;;;;5032670;28;20030;-64
2021/12/23 04:32:13;;;;;;;61.25;24.33;;;;;;;;;;5032673;28;20022;-62
2021/12/23 04:34:39;;;;;;;66.47;22.95;;;;;;;;;;5032609;28;20048;-63
2021/12/23 04:37:05;;;;;;;61.30;20.63;;;;;;;;;;5032890;28;20017;-63
2021/12/23 04:39:32;;;;;;;48.92;17.40;;;;;;;;;;5032938;28;20033;-63
2021/12/23 04:41:58;;;;;;;38.20;16.23;;;;;;;;;;5032267;28;20021;-64
2021/12/23 04:44:24;;;;;;;56.50;19.75;;;;;;;;;;5034203;28;20464;-65
2021/12/23 04:46:50;;;;;;;41.05;18.05;;;;;;;;;;5036409;28;20057;-63
2021/12/23 04:49:16;;;;;;;37.83;16.35;;;;;;;;;;5036323;28;20022;-64
2021/12/23 04:51:42;;;;;;;37.00;15.35;;;;;;;;;;5036122;28;20054;-63
2021/12/23 04:54:09;;;;;;;40.35;14.77;;;;;;;;;;5036199;28;20029;-63
2021/12/23 04:56:35;;;;;;;41.38;16.50;;;;;;;;;;5035753;28;20017;-63
2021/12/23 04:59:01;;;;;;;37.25;15.30;;;;;;;;;;5035810;28;20025;-64
2021/12/23 05:01:29;;;;;;;39.50;15.77;;;;;;;;;;5036111;28;20029;-64
2021/12/23 05:03:56;;;;;;;38.92;16.30;;;;;;;;;;5035833;28;20105;-63
2021/12/23 05:06:22;;;;;;;35.03;15.35;;;;;;;;;;5036053;28;20056;-63
2021/12/23 05:08:48;;;;;;;36.28;15.07;;;;;;;;;;5035991;28;20028;-63
2021/12/23 05:11:15;;;;;;;34.38;15.23;;;;;;;;;;5035625;28;20022;-64
2021/12/23 05:13:41;;;;;;;37.45;16.73;;;;;;;;;;5035955;28;20017;-64
2021/12/23 05:16:07;;;;;;;39.80;18.20;;;;;;;;;;5035562;28;20377;-64
2021/12/23 05:18:33;;;;;;;43.35;17.13;;;;;;;;;;5035383;28;20087;-64
2021/12/23 05:21:02;;;;;;;46.40;19.58;;;;;;;;;;5035836;28;20030;-63
2021/12/23 05:23:28;;;;;;;47.05;18.23;;;;;;;;;;5035340;28;20022;-64
2021/12/23 05:25:54;;;;;;;54.63;21.60;;;;;;;;;;5035353;28;20460;-63
2021/12/23 05:28:20;;;;;;;51.85;20.77;;;;;;;;;;5035319;28;20513;-65
2021/12/23 05:30:46;;;;;;;53.00;22.45;;;;;;;;;;5033988;28;20025;-64
2021/12/23 05:33:13;;;;;;;49.45;20.48;;;;;;;;;;5035545;28;20384;-63
2021/12/23 05:35:39;;;;;;;46.78;23.00;;;;;;;;;;5035572;28;20017;-63
2021/12/23 05:38:05;;;;;;;52.28;23.35;;;;;;;;;;5035108;28;20022;-63
2021/12/23 05:40:32;;;;;;;54.15;20.15;;;;;;;;;;5035315;28;20037;-64
2021/12/23 05:42:58;;;;;;;45.67;18.38;;;;;;;;;;5035085;28;20029;-63
2021/12/23 05:45:25;;;;;;;42.65;18.35;;;;;;;;;;5034729;28;20468;-64
2021/12/23 05:47:51;;;;;;;57.05;22.10;;;;;;;;;;5035400;28;20428;-63
2021/12/23 05:50:18;;;;;;;69.70;27.25;;;;;;;;;;5036125;28;20025;-64
2021/12/23 05:52:45;;;;;;;68.25;28.50;;;;;;;;;;5035315;28;20464;-64
2021/12/23 05:55:12;;;;;;;71.53;31.25;;;;;;;;;;5035149;28;20463;-63
2021/12/23 05:57:38;;;;;;;79.05;30.52;;;;;;;;;;5035214;28;20464;-63
2021/12/23 06:00:06;;;;;;;70.43;28.15;;;;;;;;;;5034426;28;20514;-64
2021/12/23 06:02:32;;;;;;;51.60;21.98;;;;;;;;;;5035444;28;20048;-63
2021/12/23 06:04:58;;;;;;;52.90;20.30;;;;;;;;;;5035282;28;20033;-63
2021/12/23 06:07:24;;;;;;;46.00;20.85;;;;;;;;;;5034550;28;20037;-63
2021/12/23 06:09:50;;;;;;;53.70;22.05;;;;;;;;;;5033869;28;20025;-63
2021/12/23 06:12:17;;;;;;;45.85;22.92;;;;;;;;;;5033755;28;20018;-62
2021/12/23 06:14:43;;;;;;;58.55;24.05;;;;;;;;;;5033815;28;20044;-63
2021/12/23 06:17:09;;;;;;;58.58;21.73;;;;;;;;;;5034080;28;20022;-62
2021/12/23 06:19:35;;;;;;;59.70;25.10;;;;;;;;;;5033699;28;20472;-64
2021/12/23 06:22:01;;;;;;;69.95;33.63;;;;;;;;;;5034548;28;20452;-63
2021/12/23 06:24:27;;;;;;;95.88;42.28;;;;;;;;;;5034233;28;20085;-64
2021/12/23 06:26:54;;;;;;;98.28;38.45;;;;;;;;;;5034223;28;20026;-63
2021/12/23 06:29:20;;;;;;;80.70;31.75;;;;;;;;;;5034627;28;20026;-64
2021/12/23 06:31:46;;;;;;;112.35;43.47;;;;;;;;;;5034160;28;20028;-64
2021/12/23 06:34:12;;;;;;;130.18;50.53;;;;;;;;;;5034136;28;20093;-64
2021/12/23 06:36:38;;;;;;;89.35;36.45;;;;;;;;;;5033584;28;20036;-65
2021/12/23 06:39:05;;;;;;;194.48;79.82;;;;;;;;;;5034260;28;20414;-63
2021/12/23 06:41:32;;;;;;;153.30;58.67;;;;;;;;;;5032544;28;20021;-63
2021/12/23 06:44:00;;;;;;;189.75;78.63;;;;;;;;;;5033733;28;20104;-62
2021/12/23 06:46:26;;;;;;;174.95;67.68;;;;;;;;;;5033367;28;20018;-62
2021/12/23 06:48:53;;;;;;;151.55;56.67;;;;;;;;;;5031353;28;20033;-63
2021/12/23 06:51:19;;;;;;;156.15;63.13;;;;;;;;;;5033173;28;20433;-63
2021/12/23 06:53:45;;;;;;;152.57;58.35;;;;;;;;;;5032632;28;20031;-62
2021/12/23 06:56:17;;;;;;;174.88;64.10;;;;;;;;;;5032283;28;20121;-62
2021/12/23 06:58:48;;;;;;;159.32;66.55;;;;;;;;;;5033693;28;20104;-63
2021/12/23 07:01:17;;;;;;;;;;;;;;;;;;5033722;28;20120;-65
2021/12/23 07:06:31;;;;;;;198.48;74.07;;;;;;;;;;5031854;28;20156;-62
2021/12/23 07:08:57;;;;;;;182.32;65.40;;;;;;;;;;5030917;28;20033;-62
2021/12/23 07:11:23;;;;;;;149.23;57.38;;;;;;;;;;5032947;28;20538;-63
2021/12/23 07:13:50;;;;;;;127.30;49.80;;;;;;;;;;5033521;28;20029;-63
2021/12/23 07:16:16;;;;;;;153.77;58.88;;;;;;;;;;5033451;28;20430;-63
2021/12/23 07:18:42;;;;;;;129.13;49.95;;;;;;;;;;5034003;28;20035;-64
2021/12/23 07:21:08;;;;;;;125.53;53.00;;;;;;;;;;5032852;28;20021;-63
2021/12/23 07:23:34;;;;;;;143.50;56.10;;;;;;;;;;5032618;28;20091;-63
2021/12/23 07:26:01;;;;;;;148.50;57.38;;;;;;;;;;5033654;28;20018;-63
2021/12/23 07:28:27;;;;;;;143.75;55.40;;;;;;;;;;5032670;28;20055;-62
2021/12/23 07:30:55;;;;;;;146.65;56.22;;;;;;;;;;5032977;28;20032;-62
2021/12/23 07:33:21;;;;;;;148.23;59.92;;;;;;;;;;5033591;28;20104;-62
2021/12/23 07:35:48;;;;;;;186.63;69.22;;;;;;;;;;5033222;28;20353;-63
2021/12/23 07:38:14;;;;;;;155.57;63.42;;;;;;;;;;5032920;28;20072;-63
2021/12/23 07:40:41;;;;;;;144.93;61.17;;;;;;;;;;5033263;28;20031;-63
2021/12/23 07:45:52;;;;;;;190.07;73.70;;;;;;;;;;5033384;28;20039;-63
2021/12/23 07:48:19;;;;;;;162.07;63.88;;;;;;;;;;5033516;28;20030;-62
2021/12/23 07:50:45;;;;;;;168.23;70.00;;;;;;;;;;5033219;28;20484;-61
2021/12/23 07:53:11;;;;;;;165.43;72.50;;;;;;;;;;5032680;28;20040;-62
2021/12/23 07:55:42;;;;;;;178.93;78.85;;;;;;;;;;5033310;28;20082;-62
2021/12/23 07:58:08;;;;;;;151.13;69.00;;;;;;;;;;5033059;28;20037;-62
2021/12/23 08:00:34;;;;;;;176.30;73.38;;;;;;;;;;5032947;28;20033;-62
2021/12/23 08:03:01;;;;;;;153.27;69.63;;;;;;;;;;5033655;28;20395;-61
2021/12/23 08:05:27;;;;;;;145.85;65.75;;;;;;;;;;5032973;28;20026;-63
2021/12/23 08:07:56;;;;;;;143.90;65.15;;;;;;;;;;5032731;28;20025;-63
2021/12/23 08:10:22;;;;;;;137.52;58.38;;;;;;;;;;5032814;28;20041;-63
2021/12/23 08:12:49;;;;;;;132.50;58.67;;;;;;;;;;5032737;28;20021;-63
2021/12/23 08:15:15;;;;;;;131.52;56.42;;;;;;;;;;5032951;28;20017;-63
2021/12/23 08:17:44;;;;;;;120.57;54.17;;;;;;;;;;5033179;28;20017;-64
2021/12/23 08:20:14;;;;;;;131.02;58.60;;;;;;;;;;5036513;28;20022;-63
2021/12/23 08:22:41;;;;;;;145.50;61.10;;;;;;;;;;5035250;28;20045;-64
2021/12/23 08:25:07;;;;;;;138.43;59.50;;;;;;;;;;5035382;28;20087;-64
2021/12/23 08:27:34;;;;;;;119.00;58.40;;;;;;;;;;5036777;28;20025;-64
2021/12/23 08:30:00;;;;;;;131.10;61.75;;;;;;;;;;5036329;28;20041;-62
2021/12/23 08:32:27;;;;;;;120.90;57.88;;;;;;;;;;5035113;28;20384;-63
2021/12/23 08:34:53;;;;;;;132.60;62.25;;;;;;;;;;5036548;28;20017;-62
2021/12/23 08:37:19;;;;;;;162.85;73.18;;;;;;;;;;5036622;28;20037;-62
2021/12/23 08:39:48;;;;;;;154.98;70.55;;;;;;;;;;5036227;28;20060;-62
2021/12/23 08:42:14;;;;;;;140.32;65.70;;;;;;;;;;5035866;28;20048;-61
2021/12/23 08:44:40;;;;;;;137.15;58.78;;;;;;;;;;5036261;28;20032;-63
2021/12/23 08:47:07;;;;;;;120.95;59.42;;;;;;;;;;5036108;28;20022;-62
2021/12/23 08:49:33;;;;;;;122.22;60.05;;;;;;;;;;5036315;28;20124;-63
2021/12/23 08:51:59;;;;;;;111.03;52.63;;;;;;;;;;5036301;28;20110;-62
2021/12/23 08:54:25;;;;;;;116.55;52.38;;;;;;;;;;5036355;28;20033;-61
2021/12/23 08:56:52;;;;;;;109.35;51.05;;;;;;;;;;5036306;28;20018;-61
2021/12/23 08:59:18;;;;;;;88.88;41.95;;;;;;;;;;5036125;28;20030;-61
2021/12/23 09:01:45;;;;;;;83.75;45.28;;;;;;;;;;5035047;28;20542;-63
2021/12/23 09:04:12;;;;;;;83.45;44.30;;;;;;;;;;5036313;28;20104;-62
2021/12/23 09:06:38;;;;;;;83.40;43.50;;;;;;;;;;5036598;28;20022;-60
2021/12/23 09:09:04;;;;;;;78.20;41.92;;;;;;;;;;5035888;28;20112;-63
2021/12/23 09:11:30;;;;;;;87.47;45.72;;;;;;;;;;5036626;28;20345;-62
2021/12/23 09:13:57;;;;;;;83.82;43.88;;;;;;;;;;5036402;28;20025;-63
2021/12/23 09:16:23;;;;;;;95.13;47.42;;;;;;;;;;5035312;28;20022;-63
2021/12/23 09:18:50;;;;;;;92.60;48.47;;;;;;;;;;5035818;28;20022;-63
2021/12/23 09:21:16;;;;;;;94.47;49.63;;;;;;;;;;5035955;28;20049;-63
2021/12/23 09:23:43;;;;;;;93.03;46.78;;;;;;;;;;5035107;28;20021;-63
2021/12/23 09:26:10;;;;;;;89.25;45.92;;;;;;;;;;5036338;28;20030;-64
2021/12/23 09:34:09;;;;;;;109.15;55.13;;;;;;;;;;5035687;28;20048;-64
2021/12/23 09:36:36;;;;;;;105.85;53.25;;;;;;;;;;5035523;28;20022;-64
2021/12/23 09:39:03;;;;;;;93.32;51.97;;;;;;;;;;5035241;28;20022;-63
2021/12/23 09:41:29;;;;;;;94.43;52.58;;;;;;;;;;5035456;28;20091;-62
2021/12/23 09:43:58;;;;;;;93.05;49.22;;;;;;;;;;5033954;28;20026;-64
2021/12/23 09:46:24;;;;;;;95.15;50.55;;;;;;;;;;5035035;28;20022;-62
2021/12/23 09:48:51;;;;;;;101.00;53.58;;;;;;;;;;5035004;28;20147;-65
2021/12/23 09:51:19;;;;;;;84.60;46.47;;;;;;;;;;5034731;28;20021;-63
2021/12/23 09:53:47;;;;;;;92.72;48.72;;;;;;;;;;5034613;28;20022;-64
2021/12/23 09:56:13;;;;;;;96.78;52.70;;;;;;;;;;5035738;28;20026;-63
2021/12/23 09:58:39;;;;;;;93.07;54.35;;;;;;;;;;5034810;28;20360;-64
2021/12/23 10:01:06;;;;;;;91.38;47.85;;;;;;;;;;5034509;28;20021;-64
2021/12/23 10:03:33;;;;;;;85.78;47.88;;;;;;;;;;5035027;28;20087;-63
2021/12/23 10:06:00;;;;;;;86.07;46.63;;;;;;;;;;5034818;28;20052;-63
2021/12/23 10:08:30;;;;;;;79.05;44.83;;;;;;;;;;5035216;28;20029;-63
2021/12/23 10:11:03;;;;;;;80.50;44.60;;;;;;;;;;5034498;28;20038;-63
2021/12/23 10:38:15;;;;;;;71.40;41.35;;;;;;;;;;5034258;28;20070;-64
2021/12/23 10:40:43;;;;;;;62.15;36.92;;;;;;;;;;5033957;28;20033;-65
2021/12/23 10:43:11;;;;;;;63.55;36.40;;;;;;;;;;5033919;28;20013;-62
2021/12/23 10:45:45;;;;;;;64.07;37.72;;;;;;;;;;5033818;28;20079;-63
2021/12/23 10:48:15;;;;;;;57.00;33.17;;;;;;;;;;5033906;28;20535;-62
2021/12/23 10:50:48;;;;;;;58.15;34.63;;;;;;;;;;5034009;28;20033;-63
2021/12/23 10:59:23;;;;;;;55.95;33.70;;;;;;;;;;5036004;28;20071;-62
2021/12/23 11:02:10;;;;;;;57.90;34.05;;;;;;;;;;5034629;28;20067;-63
2021/12/23 11:08:16;;;;;;;56.30;33.75;;;;;;;;;;5022238;28;20064;-63
2021/12/23 11:11:05;;;;;;;58.33;33.35;;;;;;;;;;5033311;28;20071;-64
2021/12/23 11:38:15;;;;;;;55.08;28.50;;;;;;;;;;5033483;28;20029;-65
2021/12/23 11:43:28;;;;;;;49.53;25.70;;;;;;;;;;5033182;28;20025;-64
2021/12/23 11:45:55;;;;;;;48.00;26.75;;;;;;;;;;5034057;28;20483;-63
2021/12/23 11:48:22;;;;;;;34.63;21.08;;;;;;;;;;5033310;28;20030;-65
2021/12/23 11:51:29;;;;;;;44.63;21.85;;;;;;;;;;5032917;28;20384;-65
2021/12/23 11:53:41;;;;;;;38.30;21.73;;;;;;;;;;5035335;28;20060;-65
2021/12/23 11:56:09;;;;;;;39.95;22.65;;;;;;;;;;5037107;28;20028;-66
2021/12/23 11:58:36;;;;;;;49.20;28.30;;;;;;;;;;5037624;28;20100;-65
2021/12/23 12:01:09;;;;;;;38.92;22.92;;;;;;;;;;5037269;28;20430;-66
2021/12/23 12:03:42;;;;;;;39.67;23.58;;;;;;;;;;5036537;28;20033;-65
2021/12/23 12:06:14;;;;;;;31.92;20.30;;;;;;;;;;5036737;28;20021;-67
2021/12/23 12:08:40;;;;;;;39.17;22.73;;;;;;;;;;5036673;28;20022;-64
2021/12/23 12:11:21;;;;;;;37.72;22.45;;;;;;;;;;5035510;28;20030;-65
2021/12/23 12:13:47;;;;;;;39.78;20.90;;;;;;;;;;5035032;28;20013;-63
2021/12/23 12:16:27;;;;;;;38.33;20.90;;;;;;;;;;5035043;28;20064;-64
2021/12/23 12:18:54;;;;;;;35.53;21.42;;;;;;;;;;5036975;28;20025;-65
2021/12/23 12:21:24;;;;;;;46.60;27.45;;;;;;;;;;5037153;28;20025;-64
2021/12/23 12:24:09;;;;;;;44.45;25.85;;;;;;;;;;5035917;28;20052;-66
2021/12/23 12:26:37;;;;;;;38.17;22.17;;;;;;;;;;5036673;28;20430;-65
2021/12/23 12:29:06;;;;;;;38.47;22.45;;;;;;;;;;5036536;28;20017;-65
2021/12/23 12:31:42;;;;;;;47.80;25.70;;;;;;;;;;5036265;28;20097;-62
2021/12/23 12:34:09;;;;;;;48.30;25.23;;;;;;;;;;5036268;28;20056;-64
2021/12/23 12:36:45;;;;;;;42.33;24.35;;;;;;;;;;5036239;28;20474;-63
2021/12/23 12:39:11;;;;;;;52.33;27.50;;;;;;;;;;5035964;28;20033;-64
2021/12/23 12:41:38;;;;;;;56.05;29.77;;;;;;;;;;5036402;28;20092;-62
2021/12/23 12:44:15;;;;;;;50.08;28.88;;;;;;;;;;5036029;28;20407;-64
2021/12/23 12:46:46;;;;;;;53.20;29.20;;;;;;;;;;5036150;28;20021;-62
2021/12/23 12:49:22;;;;;;;55.67;29.73;;;;;;;;;;5037319;28;20436;-62
2021/12/23 12:51:49;;;;;;;58.33;30.05;;;;;;;;;;5037262;28;20038;-63
2021/12/23 12:54:18;;;;;;;57.83;30.98;;;;;;;;;;5037349;28;20021;-62
2021/12/23 12:56:48;;;;;;;61.30;29.35;;;;;;;;;;5037982;28;20025;-62
2021/12/23 12:59:16;;;;;;;58.05;28.13;;;;;;;;;;5036184;28;20102;-64
2021/12/23 13:01:46;;;;;;;56.70;30.92;;;;;;;;;;5036295;28;20078;-63
2021/12/23 13:04:33;;;;;;;61.35;30.45;;;;;;;;;;5034749;28;20498;-64
2021/12/23 13:07:12;;;;;;;63.40;28.83;;;;;;;;;;5036109;28;20029;-63
2021/12/23 13:09:49;;;;;;;69.03;30.55;;;;;;;;;;5035664;28;20108;-63
2021/12/23 13:12:32;;;;;;;63.20;32.78;;;;;;;;;;5036029;28;20029;-62
2021/12/23 13:15:16;;;;;;;58.85;29.90;;;;;;;;;;5035451;28;20503;-64
2021/12/23 13:17:54;;;;;;;60.38;29.70;;;;;;;;;;5035912;28;20492;-63
2021/12/23 13:20:41;;;;;;;66.03;33.28;;;;;;;;;;5035172;28;20518;-63
2021/12/23 13:23:12;;;;;;;60.38;30.83;;;;;;;;;;5035470;28;20361;-65
2021/12/23 13:25:44;;;;;;;52.97;24.15;;;;;;;;;;5036482;28;20046;-64
2021/12/23 13:28:11;;;;;;;55.72;26.45;;;;;;;;;;5035232;28;20538;-65
2021/12/23 13:30:39;;;;;;;66.22;28.83;;;;;;;;;;5035322;28;20025;-64
2021/12/23 13:33:05;;;;;;;61.47;27.83;;;;;;;;;;5035632;28;20025;-65
2021/12/23 13:35:31;;;;;;;60.95;27.50;;;;;;;;;;5035545;28;20029;-64
2021/12/23 13:37:58;;;;;;;61.80;27.63;;;;;;;;;;5035332;28;20479;-65
2021/12/23 13:40:28;;;;;;;61.00;27.33;;;;;;;;;;5034109;28;20036;-64
2021/12/23 13:42:54;;;;;;;64.07;29.52;;;;;;;;;;5035107;28;20021;-64
2021/12/23 13:45:21;;;;;;;55.40;26.02;;;;;;;;;;5035483;28;20018;-64
2021/12/23 13:47:51;;;;;;;57.53;27.95;;;;;;;;;;5035042;28;20068;-63
2021/12/23 13:50:21;;;;;;;54.35;26.30;;;;;;;;;;5035405;28;20037;-64
2021/12/23 13:52:49;;;;;;;63.65;30.73;;;;;;;;;;5035328;28;20121;-65
2021/12/23 13:55:23;;;;;;;64.70;29.05;;;;;;;;;;5034570;28;20136;-65
2021/12/23 13:57:52;;;;;;;52.42;25.85;;;;;;;;;;5034991;28;20552;-65
2021/12/23 14:00:21;;;;;;;66.68;31.40;;;;;;;;;;5034806;28;20053;-65
2021/12/23 14:02:51;;;;;;;86.95;38.35;;;;;;;;;;5034767;28;20505;-64
2021/12/23 14:05:17;;;;;;;72.68;33.92;;;;;;;;;;5034999;28;20025;-66
2021/12/23 14:07:44;;;;;;;71.93;32.90;;;;;;;;;;5034970;28;20477;-64
2021/12/23 14:10:15;;;;;;;61.95;31.08;;;;;;;;;;5034568;28;20099;-65
2021/12/23 14:12:49;;;;;;;63.58;30.98;;;;;;;;;;5035071;28;20026;-64
2021/12/23 14:15:18;;;;;;;63.17;30.98;;;;;;;;;;5034418;28;20033;-67
2021/12/23 14:17:46;;;;;;;85.32;36.45;;;;;;;;;;5034177;28;20506;-63
2021/12/23 14:23:16;;;;;;;66.22;29.92;;;;;;;;;;5034213;28;20043;-64
2021/12/23 14:25:48;;;;;;;59.13;29.40;;;;;;;;;;5034559;28;20045;-65
2021/12/23 14:28:16;;;;;;;59.55;29.65;;;;;;;;;;5034524;28;20091;-64
2021/12/23 14:30:57;;;;;;;67.35;29.75;;;;;;;;;;5033092;28;20025;-65
2021/12/23 14:33:25;;;;;;;63.75;27.45;;;;;;;;;;5034662;28;20111;-64
2021/12/23 14:36:00;;;;;;;53.97;26.00;;;;;;;;;;5034560;28;20208;-64
2021/12/23 14:38:34;;;;;;;55.60;27.02;;;;;;;;;;5034354;28;20029;-65
2021/12/23 14:41:19;;;;;;;60.78;28.40;;;;;;;;;;5034675;28;20036;-63
2021/12/23 14:43:53;;;;;;;92.80;40.22;;;;;;;;;;5034169;28;20094;-66
2021/12/23 14:46:24;;;;;;;82.43;37.17;;;;;;;;;;5034416;28;20388;-64
2021/12/23 14:49:23;;;;;;;83.18;35.88;;;;;;;;;;5034284;28;20024;-65
2021/12/23 14:51:50;;;;;;;57.40;28.10;;;;;;;;;;5033786;28;20025;-63
2021/12/23 14:54:20;;;;;;;58.10;28.10;;;;;;;;;;5034329;28;20021;-63
2021/12/23 14:56:48;;;;;;;61.47;29.15;;;;;;;;;;5034035;28;20049;-64
2021/12/23 14:59:15;;;;;;;62.22;27.40;;;;;;;;;;5033644;28;20079;-64
2021/12/23 15:01:43;;;;;;;62.15;28.55;;;;;;;;;;5033674;28;20026;-63
2021/12/23 15:04:16;;;;;;;59.42;25.92;;;;;;;;;;5033596;28;20498;-65
2021/12/23 15:07:01;;;;;;;51.95;25.00;;;;;;;;;;5033473;28;20120;-64
2021/12/23 15:09:30;;;;;;;50.50;25.63;;;;;;;;;;5033606;28;20546;-66
2021/12/23 15:11:57;;;;;;;56.78;26.15;;;;;;;;;;5032959;28;20030;-65
2021/12/23 15:14:24;;;;;;;53.90;25.52;;;;;;;;;;5032732;28;20529;-66
2021/12/23 15:17:02;;;;;;;58.22;28.05;;;;;;;;;;5033368;28;20028;-65
2021/12/23 15:19:37;;;;;;;60.47;28.48;;;;;;;;;;5033160;28;20033;-65
2021/12/23 15:22:23;;;;;;;59.17;27.38;;;;;;;;;;5034492;28;20083;-65
2021/12/23 15:25:01;;;;;;;53.65;25.48;;;;;;;;;;5033609;28;20064;-66
2021/12/23 15:27:29;;;;;;;67.15;27.40;;;;;;;;;;5032571;28;20109;-65
2021/12/23 15:30:00;;;;;;;60.90;27.70;;;;;;;;;;5033589;28;20026;-64
2021/12/23 15:32:28;;;;;;;60.90;27.88;;;;;;;;;;5033607;28;20053;-64
2021/12/23 15:35:00;;;;;;;69.85;31.77;;;;;;;;;;5033150;28;20030;-65
2021/12/23 15:37:27;;;;;;;61.38;27.48;;;;;;;;;;5033939;28;20357;-65
2021/12/23 15:39:54;;;;;;;65.93;30.80;;;;;;;;;;5033454;28;20026;-63
2021/12/23 15:42:21;;;;;;;62.67;31.23;;;;;;;;;;5033207;28;20510;-65
2021/12/23 15:44:49;;;;;;;65.50;29.63;;;;;;;;;;5033155;28;20050;-63